Time;durP1;ratioP1;P1;durP2;ratioP2;P2;SDS_P1;SDS_P2;PMS_P1;PMS_P2;Temp;Humidity;BMP_temperature;BMP_pressure;BME280_temperature;BME280_humidity;BME280_pressure;Samples;Min_cycle;Max_cycle;Signal;HPM_P1;HPM_P2
2023/05/26 00:04:31;;;;;;;;;;;;;;;10.39;87.17;102845.88;10545558;28;19924;-66
2023/05/26 00:09:33;;;;;;;;;;;;;;;9.92;88.08;102848.66;10544465;28;20236;-66
2023/05/26 00:14:36;;;;;;;;;;;;;;;10.18;88.57;102853.28;10545322;28;19924;-66
2023/05/26 00:19:38;;;;;;;;;;;;;;;10.26;87.48;102860.13;10544134;28;20260;-66
2023/05/26 00:24:40;;;;;;;;;;;;;;;9.79;90.91;102863.75;10545177;28;19924;-66
2023/05/26 00:29:42;;;;;;;;;;;;;;;9.57;93.96;102865.94;10526249;28;19935;-65
2023/05/26 00:34:45;;;;;;;;;;;;;;;9.85;91.65;102866.25;10544259;28;19924;-66
2023/05/26 00:39:47;;;;;;;;;;;;;;;10.14;88.89;102867.34;10543421;28;20375;-66
2023/05/26 00:44:52;;;;;;;;;;;;;;;9.62;90.30;102868.47;10509162;28;19924;-66
2023/05/26 00:49:54;;;;;;;;;;;;;;;9.65;92.21;102865.81;10524681;28;19924;-66
2023/05/26 00:54:57;;;;;;;;;;;;;;;9.77;92.83;102873.38;10544333;28;19931;-66
2023/05/26 00:59:59;;;;;;;;;;;;;;;9.55;93.12;102874.69;10543071;28;19967;-66
2023/05/26 01:05:01;;;;;;;;;;;;;;;9.49;92.16;102865.22;10542931;28;19924;-66
2023/05/26 01:10:04;;;;;;;;;;;;;;;9.57;91.97;102868.56;10519037;28;19930;-66
2023/05/26 01:15:09;;;;;;;;;;;;;;;9.38;92.48;102865.44;10542033;28;19924;-65
2023/05/26 01:20:19;;;;;;;;;;;;;;;9.76;91.78;102866.41;10541789;28;19924;-65
2023/05/26 01:25:39;;;;;;;;;;;;;;;9.71;92.64;102867.41;10540234;22;19981;-63
2023/05/26 01:30:42;;;;;;;;;;;;;;;9.35;92.76;102875.97;10542898;28;19935;-63
2023/05/26 01:35:44;;;;;;;;;;;;;;;9.40;93.65;102871.50;10528454;28;19930;-63
2023/05/26 01:40:48;;;;;;;;;;;;;;;9.21;95.30;102868.38;10539609;28;19931;-63
2023/05/26 01:46:07;;;;;;;;;;;;;;;9.10;95.34;102875.56;10524331;28;19924;-63
2023/05/26 01:51:09;;;;;;;;;;;;;;;9.21;95.05;102870.13;10527649;28;19924;-63
2023/05/26 01:56:11;;;;;;;;;;;;;;;9.14;94.73;102879.81;10539985;28;19928;-63
2023/05/26 02:01:14;;;;;;;;;;;;;;;9.28;95.13;102877.84;10536905;28;19924;-63
2023/05/26 02:06:17;;;;;;;;;;;;;;;8.94;96.95;102890.63;10523659;28;19932;-63
2023/05/26 02:11:19;;;;;;;;;;;;;;;8.97;96.47;102895.81;10540594;28;20298;-63
2023/05/26 02:16:22;;;;;;;;;;;;;;;9.06;96.97;102884.31;10539769;28;19934;-63
2023/05/26 02:21:25;;;;;;;;;;;;;;;9.14;93.83;102887.66;10539794;28;19924;-63
2023/05/26 02:26:28;;;;;;;;;;;;;;;9.28;95.05;102898.75;10540168;28;19924;-63
2023/05/26 02:31:31;;;;;;;;;;;;;;;8.86;96.45;102900.34;10539228;28;19924;-63
2023/05/26 02:36:44;;;;;;;;;;;;;;;8.77;98.17;102898.75;10523561;28;20349;-63
2023/05/26 02:41:46;;;;;;;;;;;;;;;8.54;99.13;102896.50;10540483;28;19924;-63
2023/05/26 02:46:48;;;;;;;;;;;;;;;8.92;95.88;102890.66;10539266;28;19924;-63
2023/05/26 02:51:50;;;;;;;;;;;;;;;8.78;96.25;102897.00;10538630;28;19924;-63
2023/05/26 02:56:52;;;;;;;;;;;;;;;8.67;97.96;102897.16;10539471;28;20353;-63
2023/05/26 03:01:55;;;;;;;;;;;;;;;8.87;97.10;102891.63;10537472;28;20272;-63
2023/05/26 03:06:57;;;;;;;;;;;;;;;8.80;96.07;102890.88;10546482;28;20302;-63
2023/05/26 03:11:59;;;;;;;;;;;;;;;8.78;96.97;102895.25;10546960;28;19930;-63
2023/05/26 03:17:01;;;;;;;;;;;;;;;8.28;100.00;102905.53;10548235;28;19928;-63
2023/05/26 03:22:04;;;;;;;;;;;;;;;8.49;100.00;102903.53;10548060;28;19924;-63
2023/05/26 03:27:26;;;;;;;;;;;;;;;8.42;100.00;102909.69;10580700;28;19931;-63
2023/05/26 03:32:28;;;;;;;;;;;;;;;8.52;99.88;102912.19;10572033;28;20286;-63
2023/05/26 03:37:30;;;;;;;;;;;;;;;8.20;100.00;102912.59;10560356;28;19963;-63
2023/05/26 03:42:35;;;;;;;;;;;;;;;8.40;100.00;102908.88;10574252;28;19931;-63
2023/05/26 03:47:37;;;;;;;;;;;;;;;8.37;99.35;102905.41;10585544;28;19982;-63
2023/05/26 03:52:40;;;;;;;;;;;;;;;8.20;100.00;102912.59;10588965;28;19957;-63
2023/05/26 03:57:42;;;;;;;;;;;;;;;8.52;100.00;102920.03;10560578;28;19945;-63
2023/05/26 04:02:45;;;;;;;;;;;;;;;8.75;100.00;102924.03;10570681;28;19930;-63
2023/05/26 04:07:47;;;;;;;;;;;;;;;8.84;98.91;102918.69;10565284;28;19963;-63
2023/05/26 04:12:49;;;;;;;;;;;;;;;9.15;98.04;102930.38;10587454;28;20382;-63
2023/05/26 04:17:52;;;;;;;;;;;;;;;9.08;97.45;102927.84;10585965;28;20370;-63
2023/05/26 04:22:54;;;;;;;;;;;;;;;9.24;96.43;102928.44;10573444;28;19923;-63
2023/05/26 04:27:58;;;;;;;;;;;;;;;9.18;96.62;102930.28;10572125;28;19962;-63
2023/05/26 04:33:00;;;;;;;;;;;;;;;8.94;98.42;102932.44;10565476;28;19923;-63
2023/05/26 04:38:04;;;;;;;;;;;;;;;8.70;100.00;102939.75;10568286;28;19928;-62
2023/05/26 04:43:06;;;;;;;;;;;;;;;9.16;98.62;102938.16;10586372;28;19923;-63
2023/05/26 04:48:09;;;;;;;;;;;;;;;9.06;97.27;102942.69;10546398;28;19932;-63
2023/05/26 04:53:11;;;;;;;;;;;;;;;9.16;96.75;102942.53;10559345;28;20003;-63
2023/05/26 04:58:13;;;;;;;;;;;;;;;9.09;97.76;102954.81;10571781;28;19924;-63
2023/05/26 05:03:16;;;;;;;;;;;;;;;9.32;97.99;102944.00;10561077;28;19924;-63
2023/05/26 05:08:18;;;;;;;;;;;;;;;9.24;100.00;102949.34;10558135;28;19924;-63
2023/05/26 05:13:20;;;;;;;;;;;;;;;9.40;97.86;102949.94;10578015;28;19931;-63
2023/05/26 05:18:22;;;;;;;;;;;;;;;9.53;97.89;102952.31;10540958;28;20406;-63
2023/05/26 05:23:24;;;;;;;;;;;;;;;9.35;97.66;102958.78;10584659;28;19931;-63
2023/05/26 05:28:27;;;;;;;;;;;;;;;9.73;96.45;102963.25;10584729;28;19931;-63
2023/05/26 05:33:29;;;;;;;;;;;;;;;9.53;96.52;102966.28;10558736;28;19947;-63
2023/05/26 05:38:31;;;;;;;;;;;;;;;10.06;93.28;102971.34;10524695;28;19924;-63
2023/05/26 05:43:34;;;;;;;;;;;;;;;10.05;93.94;102972.22;10541813;28;20383;-63
2023/05/26 05:48:39;;;;;;;;;;;;;;;10.14;91.53;102969.44;10541606;28;20431;-63
2023/05/26 05:53:41;;;;;;;;;;;;;;;9.95;91.01;102982.03;10541709;28;19924;-63
2023/05/26 05:58:43;;;;;;;;;;;;;;;9.88;90.62;102983.03;10541160;28;20370;-63
2023/05/26 06:03:46;;;;;;;;;;;;;;;9.82;90.39;102989.25;10540988;28;19931;-63
2023/05/26 06:08:48;;;;;;;;;;;;;;;10.26;90.22;102991.88;10522902;28;19924;-63
2023/05/26 06:13:50;;;;;;;;;;;;;;;10.49;88.89;102990.53;10540531;28;19924;-63
2023/05/26 06:18:53;;;;;;;;;;;;;;;10.64;86.44;102991.97;10523202;28;19928;-63
2023/05/26 06:23:55;;;;;;;;;;;;;;;10.28;84.10;103002.31;10542894;28;20349;-63
2023/05/26 06:28:57;;;;;;;;;;;;;;;10.71;85.72;102990.94;10583081;28;19924;-63
2023/05/26 06:33:59;;;;;;;;;;;;;;;11.02;84.32;102996.31;10552281;28;20395;-63
2023/05/26 06:39:02;;;;;;;;;;;;;;;11.09;83.67;102994.41;10539275;28;19981;-63
2023/05/26 06:44:04;;;;;;;;;;;;;;;11.50;81.99;103003.84;10540260;28;19924;-63
2023/05/26 06:49:06;;;;;;;;;;;;;;;11.55;80.62;103008.09;10522106;28;19924;-63
2023/05/26 06:54:09;;;;;;;;;;;;;;;11.37;79.34;102993.72;10563427;28;20393;-63
2023/05/26 06:59:11;;;;;;;;;;;;;;;11.83;78.98;103001.22;10582193;28;20015;-63
2023/05/26 07:04:13;;;;;;;;;;;;;;;11.84;79.76;103009.97;10581619;28;20304;-63
2023/05/26 07:09:15;;;;;;;;;;;;;;;12.19;77.80;103003.75;10581986;28;19924;-63
2023/05/26 07:14:18;;;;;;;;;;;;;;;12.64;74.94;103002.41;10563778;28;20022;-63
2023/05/26 07:19:20;;;;;;;;;;;;;;;12.33;75.39;103005.97;10581827;28;19923;-63
2023/05/26 07:24:22;;;;;;;;;;;;;;;13.51;71.85;103014.47;10581084;28;19930;-63
2023/05/26 07:29:24;;;;;;;;;;;;;;;12.72;74.33;103012.69;10581174;28;20328;-63
2023/05/26 07:34:26;;;;;;;;;;;;;;;13.18;72.49;103016.47;10547713;28;19924;-63
2023/05/26 07:39:29;;;;;;;;;;;;;;;13.05;70.86;103017.78;10538636;28;20007;-63
2023/05/26 07:44:31;;;;;;;;;;;;;;;13.10;70.13;103021.13;10538617;28;20367;-63
2023/05/26 07:49:33;;;;;;;;;;;;;;;14.44;68.37;103006.75;10564708;28;19927;-63
2023/05/26 07:54:35;;;;;;;;;;;;;;;14.97;66.49;102999.41;10589139;28;19924;-63
2023/05/26 07:59:37;;;;;;;;;;;;;;;14.95;65.40;102994.19;10588868;28;19924;-63
2023/05/26 08:04:40;;;;;;;;;;;;;;;14.60;64.76;102998.25;10587927;28;19932;-63
2023/05/26 08:09:43;;;;;;;;;;;;;;;15.33;63.83;103001.44;10587845;28;20397;-63
2023/05/26 08:14:45;;;;;;;;;;;;;;;14.79;63.59;102993.97;10587566;28;20385;-63
2023/05/26 08:19:47;;;;;;;;;;;;;;;15.22;64.12;102993.97;10569303;28;19946;-63
2023/05/26 08:24:50;;;;;;;;;;;;;;;15.35;61.40;103004.88;10587151;28;19924;-64
2023/05/26 08:29:52;;;;;;;;;;;;;;;15.02;61.65;103000.94;10587648;28;19923;-63
2023/05/26 08:34:54;;;;;;;;;;;;;;;17.09;60.01;103002.19;10558466;28;19923;-64
2023/05/26 08:39:59;;;;;;;;;;;;;;;16.94;60.92;103009.09;10586613;28;19924;-63
2023/05/26 08:45:02;;;;;;;;;;;;;;;16.69;60.35;103004.13;10587021;28;19928;-64
2023/05/26 08:50:04;;;;;;;;;;;;;;;16.94;58.97;102997.66;10586080;28;20293;-63
2023/05/26 08:55:08;;;;;;;;;;;;;;;16.62;58.41;103000.91;10568676;28;19967;-63
2023/05/26 09:00:12;;;;;;;;;;;;;;;16.33;57.86;102997.88;10586302;28;19931;-63
2023/05/26 09:05:14;;;;;;;;;;;;;;;17.08;57.44;102992.56;10568069;28;19963;-63
2023/05/26 09:10:19;;;;;;;;;;;;;;;17.38;57.96;102989.28;10586198;28;19923;-61
2023/05/26 09:15:22;;;;;;;;;;;;;;;18.09;55.87;102986.44;10585145;28;19924;-63
2023/05/26 09:20:27;;;;;;;;;;;;;;;18.77;53.55;102981.78;10567710;28;19951;-62
2023/05/26 09:25:40;;;;;;;;;;;;;;;18.60;55.29;102990.72;10584911;28;19967;-63
2023/05/26 09:30:43;;;;;;;;;;;;;;;17.69;53.92;102977.94;10548350;28;19934;-63
2023/05/26 09:35:46;;;;;;;;;;;;;;;18.26;54.22;102984.66;10555049;28;19931;-63
2023/05/26 09:40:49;;;;;;;;;;;;;;;19.73;51.78;102982.28;10566101;28;20305;-63
2023/05/26 09:45:51;;;;;;;;;;;;;;;18.53;52.34;102979.59;10566465;28;19931;-62
2023/05/26 09:50:53;;;;;;;;;;;;;;;18.87;52.42;102983.84;10584318;28;19977;-63
2023/05/26 09:55:56;;;;;;;;;;;;;;;19.73;47.92;102985.78;10584200;28;19923;-63
2023/05/26 10:00:58;;;;;;;;;;;;;;;19.82;50.68;102987.06;10583407;28;19923;-62
2023/05/26 10:06:00;;;;;;;;;;;;;;;19.83;50.13;102988.78;10565230;28;20382;-62
2023/05/26 10:11:03;;;;;;;;;;;;;;;19.86;49.87;102991.25;10564937;28;20382;-63
2023/05/26 10:16:05;;;;;;;;;;;;;;;20.86;50.00;102982.16;10564769;28;19924;-62
2023/05/26 10:21:08;;;;;;;;;;;;;;;21.11;50.63;102984.03;10583214;28;19977;-63
2023/05/26 10:26:11;;;;;;;;;;;;;;;20.37;48.84;102964.94;10582465;28;19930;-63
2023/05/26 10:31:16;;;;;;;;;;;;;;;20.83;48.88;102965.56;10558451;28;19928;-63
2023/05/26 10:36:19;;;;;;;;;;;;;;;22.03;47.87;102968.78;10505783;28;19924;-63
2023/05/26 10:41:33;;;;;;;;;;;;;;;22.24;47.01;102953.06;10540432;28;19930;-63
2023/05/26 10:46:39;;;;;;;;;;;;;;;22.91;45.54;102940.13;10540384;28;19924;-63
2023/05/26 10:51:47;;;;;;;;;;;;;;;19.75;47.19;102959.16;10522392;28;19924;-63
2023/05/26 10:56:50;;;;;;;;;;;;;;;22.50;45.00;102939.63;10521598;28;20481;-63
2023/05/26 11:01:55;;;;;;;;;;;;;;;22.42;43.76;102948.19;10543912;28;19930;-63
2023/05/26 11:06:59;;;;;;;;;;;;;;;21.28;44.67;102944.75;10582108;28;19924;-63
2023/05/26 11:12:04;;;;;;;;;;;;;;;22.13;46.06;102936.13;10581336;28;20309;-63
2023/05/26 11:17:06;;;;;;;;;;;;;;;22.46;43.16;102940.81;10563715;28;19930;-63
2023/05/26 11:22:09;;;;;;;;;;;;;;;21.52;45.76;102936.91;10581770;28;20018;-63
2023/05/26 11:27:11;;;;;;;;;;;;;;;22.32;43.71;102932.97;10586791;28;19930;-63
2023/05/26 11:32:13;;;;;;;;;;;;;;;21.84;43.80;102936.41;10574367;28;20369;-63
2023/05/26 11:37:15;;;;;;;;;;;;;;;21.88;42.27;102925.41;10546951;28;20290;-63
2023/05/26 11:42:18;;;;;;;;;;;;;;;23.46;40.95;102927.84;10543227;28;19931;-63
2023/05/26 11:47:23;;;;;;;;;;;;;;;23.49;41.11;102927.59;10570709;28;20392;-63
2023/05/26 11:52:25;;;;;;;;;;;;;;;22.65;41.66;102934.09;10571028;28;20355;-63
2023/05/26 11:57:31;;;;;;;;;;;;;;;22.76;41.25;102918.97;10570830;28;19963;-63
2023/05/26 12:02:33;;;;;;;;;;;;;;;23.43;39.88;102922.75;10588069;28;19928;-63
2023/05/26 12:07:36;;;;;;;;;;;;;;;24.09;38.67;102922.81;10587975;28;20374;-63
2023/05/26 12:12:49;;;;;;;;;;;;;;;23.05;41.66;102915.00;10588336;28;20037;-63
2023/05/26 12:17:52;;;;;;;;;;;;;;;23.50;37.97;102920.44;10570012;28;19924;-63
2023/05/26 12:23:02;;;;;;;;;;;;;;;25.29;37.61;102913.75;10569289;28;20026;-63
2023/05/26 12:28:04;;;;;;;;;;;;;;;23.90;38.47;102911.91;10571056;28;20026;-63
2023/05/26 12:33:06;;;;;;;;;;;;;;;23.89;40.94;102904.88;10565200;28;19931;-63
2023/05/26 12:38:11;;;;;;;;;;;;;;;23.41;39.50;102905.97;10561829;28;19924;-63
2023/05/26 12:43:13;;;;;;;;;;;;;;;23.79;41.97;102906.53;10569158;28;19936;-63
2023/05/26 12:48:16;;;;;;;;;;;;;;;24.64;40.10;102890.63;10586952;28;19924;-63
2023/05/26 12:53:18;;;;;;;;;;;;;;;23.24;39.73;102893.09;10586008;28;19924;-63
2023/05/26 12:58:21;;;;;;;;;;;;;;;25.14;39.18;102883.75;10586238;28;19931;-63
2023/05/26 13:03:23;;;;;;;;;;;;;;;24.31;44.01;102886.28;10585381;28;19927;-63
2023/05/26 13:08:26;;;;;;;;;;;;;;;24.51;39.56;102873.88;10585788;28;19976;-63
2023/05/26 13:13:28;;;;;;;;;;;;;;;24.82;41.02;102882.00;10584843;28;19947;-63
2023/05/26 13:18:30;;;;;;;;;;;;;;;25.62;38.79;102875.06;10566772;28;19947;-63
2023/05/26 13:23:32;;;;;;;;;;;;;;;;;;10584658;28;20367;-63
2023/05/26 13:28:35;;;;;;;;;;;;;;;25.24;38.57;102871.22;10584623;28;20392;-63
2023/05/26 13:33:37;;;;;;;;;;;;;;;24.27;39.75;102855.38;10557854;28;19947;-63
2023/05/26 13:38:39;;;;;;;;;;;;;;;24.71;39.53;102866.84;10558716;22;19931;-65
2023/05/26 13:43:41;;;;;;;;;;;;;;;22.87;38.90;102867.41;10584735;28;19961;-64
2023/05/26 13:48:44;;;;;;;;;;;;;;;22.85;39.26;102856.00;10566342;28;19931;-65
2023/05/26 13:53:46;;;;;;;;;;;;;;;23.32;41.61;102863.97;10565733;28;19923;-64
2023/05/26 13:58:48;;;;;;;;;;;;;;;22.65;41.02;102854.84;10583435;28;19975;-64
2023/05/26 14:03:53;;;;;;;;;;;;;;;24.13;38.47;102847.66;10584013;28;19930;-64
2023/05/26 14:08:58;;;;;;;;;;;;;;;22.90;40.31;102851.16;10583875;28;19923;-64
2023/05/26 14:14:00;;;;;;;;;;;;;;;22.81;40.29;102842.03;10582768;28;19924;-64
2023/05/26 14:19:03;;;;;;;;;;;;;;;22.76;41.55;102848.69;10582851;28;20417;-64
2023/05/26 14:24:11;;;;;;;;;;;;;;;23.86;40.32;102830.22;10583274;28;19923;-63
2023/05/26 14:29:14;;;;;;;;;;;;;;;24.29;40.13;102823.97;10582464;28;19923;-63
2023/05/26 14:34:16;;;;;;;;;;;;;;;24.53;39.14;102821.03;10582167;28;20355;-63
2023/05/26 14:39:19;;;;;;;;;;;;;;;23.11;41.00;102835.28;10581851;28;19946;-63
2023/05/26 14:44:21;;;;;;;;;;;;;;;24.41;38.71;102822.06;10582601;28;20362;-64
2023/05/26 14:49:23;;;;;;;;;;;;;;;23.74;39.38;102819.53;10582313;28;19923;-64
2023/05/26 14:54:25;;;;;;;;;;;;;;;23.82;38.97;102823.41;10581781;28;19932;-64
2023/05/26 14:59:28;;;;;;;;;;;;;;;24.74;39.54;102817.53;10581337;28;20282;-64
2023/05/26 15:04:31;;;;;;;;;;;;;;;23.49;40.15;102818.00;10581462;28;20370;-64
2023/05/26 15:09:33;;;;;;;;;;;;;;;23.53;40.43;102814.09;10581432;28;19931;-64
2023/05/26 15:14:36;;;;;;;;;;;;;;;23.67;38.43;102813.00;10581941;28;19935;-64
2023/05/26 15:19:38;;;;;;;;;;;;;;;23.90;38.00;102812.94;10581952;28;19930;-64
2023/05/26 15:24:40;;;;;;;;;;;;;;;23.53;40.26;102806.06;10581751;28;19924;-63
2023/05/26 15:29:43;;;;;;;;;;;;;;;23.66;38.24;102800.59;10581099;28;20014;-64
2023/05/26 15:34:45;;;;;;;;;;;;;;;22.88;38.61;102804.16;10580912;28;19928;-64
2023/05/26 15:39:47;;;;;;;;;;;;;;;22.42;39.53;102805.91;10563034;28;19974;-64
2023/05/26 15:44:49;;;;;;;;;;;;;;;21.84;41.42;102809.28;10581355;28;19924;-64
2023/05/26 15:49:52;;;;;;;;;;;;;;;22.52;41.71;102803.38;10580537;28;19924;-63
2023/05/26 15:54:54;;;;;;;;;;;;;;;22.57;40.86;102806.53;10581078;28;19924;-63
2023/05/26 15:59:56;;;;;;;;;;;;;;;22.46;40.77;102810.06;10580471;28;19935;-63
2023/05/26 16:04:58;;;;;;;;;;;;;;;21.50;40.26;102809.09;10580522;28;19924;-64
2023/05/26 16:10:00;;;;;;;;;;;;;;;21.86;40.28;102804.69;10580694;28;19926;-63
2023/05/26 16:15:03;;;;;;;;;;;;;;;22.03;40.37;102805.25;10587527;28;20465;-64
2023/05/26 16:20:06;;;;;;;;;;;;;;;22.12;41.27;102812.53;10587462;28;19934;-63
2023/05/26 16:25:09;;;;;;;;;;;;;;;21.76;39.51;102802.81;10588129;28;19924;-63
2023/05/26 16:30:12;;;;;;;;;;;;;;;22.47;39.13;102806.41;10587146;28;19924;-63
2023/05/26 16:35:17;;;;;;;;;;;;;;;21.52;42.75;102806.31;10587539;28;19924;-63
2023/05/26 16:40:19;;;;;;;;;;;;;;;21.24;42.69;102800.25;10586563;28;19923;-63
2023/05/26 16:45:21;;;;;;;;;;;;;;;21.95;42.49;102789.81;10587258;28;19924;-63
2023/05/26 16:50:24;;;;;;;;;;;;;;;19.99;42.91;102798.13;10587166;28;19931;-63
2023/05/26 16:55:26;;;;;;;;;;;;;;;21.42;44.19;102800.75;10568128;28;19927;-63
2023/05/26 17:00:28;;;;;;;;;;;;;;;20.23;45.52;102789.47;10586059;28;19923;-63
2023/05/26 17:05:30;;;;;;;;;;;;;;;19.76;44.96;102801.41;10586416;28;19924;-63
2023/05/26 17:10:33;;;;;;;;;;;;;;;20.37;44.26;102793.84;10586234;28;19930;-63
2023/05/26 17:15:35;;;;;;;;;;;;;;;19.25;47.64;102801.97;10586001;28;19930;-63
2023/05/26 17:20:37;;;;;;;;;;;;;;;19.29;47.47;102804.31;10585148;28;20285;-63
2023/05/26 17:25:41;;;;;;;;;;;;;;;19.57;47.70;102807.88;10584131;28;20391;-63
2023/05/26 17:30:43;;;;;;;;;;;;;;;18.40;48.33;102819.44;10585458;28;19928;-63
2023/05/26 17:35:46;;;;;;;;;;;;;;;19.26;48.76;102817.78;10566996;28;19932;-63
2023/05/26 17:40:48;;;;;;;;;;;;;;;18.72;49.76;102822.84;10584308;28;20014;-63
2023/05/26 17:45:50;;;;;;;;;;;;;;;18.15;49.62;102824.34;10584048;28;19923;-63
2023/05/26 17:50:52;;;;;;;;;;;;;;;18.29;49.31;102823.59;10583923;28;20294;-63
2023/05/26 17:55:55;;;;;;;;;;;;;;;17.96;49.20;102827.22;10583690;28;19924;-63
2023/05/26 18:00:57;;;;;;;;;;;;;;;17.60;50.11;102825.66;10583603;28;20400;-63
2023/05/26 18:06:00;;;;;;;;;;;;;;;17.50;50.90;102834.19;10583957;28;19924;-63
2023/05/26 18:11:02;;;;;;;;;;;;;;;17.44;50.90;102838.88;10584026;28;19931;-63
2023/05/26 18:16:04;;;;;;;;;;;;;;;17.71;50.08;102840.09;10564737;28;19924;-63
2023/05/26 18:21:08;;;;;;;;;;;;;;;17.55;52.40;102835.66;10582750;28;20382;-63
2023/05/26 18:26:10;;;;;;;;;;;;;;;16.83;53.77;102842.94;10583210;28;19930;-63
2023/05/26 18:31:12;;;;;;;;;;;;;;;16.20;54.55;102850.53;10582391;28;20297;-63
2023/05/26 18:36:15;;;;;;;;;;;;;;;16.10;57.03;102852.75;10546459;28;20289;-64
2023/05/26 18:41:17;;;;;;;;;;;;;;;16.19;57.49;102849.69;10581150;28;20006;-63
2023/05/26 18:46:20;;;;;;;;;;;;;;;15.80;58.09;102853.25;10580452;28;19924;-63
2023/05/26 18:51:22;;;;;;;;;;;;;;;15.25;59.17;102848.72;10580497;28;20352;-63
2023/05/26 18:56:24;;;;;;;;;;;;;;;15.90;58.76;102851.94;10580710;28;19965;-63
2023/05/26 19:01:26;;;;;;;;;;;;;;;15.40;59.89;102863.88;10562612;28;20010;-62
2023/05/26 19:06:29;;;;;;;;;;;;;;;15.10;60.91;102870.50;10579808;28;20371;-63
2023/05/26 19:11:31;;;;;;;;;;;;;;;15.28;60.57;102866.19;10579701;28;19971;-63
2023/05/26 19:16:34;;;;;;;;;;;;;;;15.22;61.09;102870.81;10579672;28;19931;-63
2023/05/26 19:21:36;;;;;;;;;;;;;;;15.02;61.34;102871.69;10580108;28;19928;-63
2023/05/26 19:26:39;;;;;;;;;;;;;;;14.61;62.10;102876.94;10579973;28;19966;-63
2023/05/26 19:31:41;;;;;;;;;;;;;;;14.40;62.08;102877.78;10561390;28;20281;-62
2023/05/26 19:36:43;;;;;;;;;;;;;;;14.69;62.64;102887.16;10579526;28;20336;-63
2023/05/26 19:41:48;;;;;;;;;;;;;;;14.37;62.83;102884.00;10515781;28;1817354;-63
2023/05/26 19:46:54;;;;;;;;;;;;;;;14.25;63.07;102882.72;10585096;28;20022;-63
2023/05/26 19:51:56;;;;;;;;;;;;;;;14.24;62.66;102881.03;10572018;28;19928;-63
2023/05/26 19:56:58;;;;;;;;;;;;;;;14.23;63.42;102874.03;10588707;28;19924;-63
2023/05/26 20:02:01;;;;;;;;;;;;;;;14.04;63.66;102880.97;10570881;28;20007;-62
2023/05/26 20:07:03;;;;;;;;;;;;;;;13.97;63.77;102888.25;10588723;28;20022;-62
2023/05/26 20:12:05;;;;;;;;;;;;;;;13.79;65.45;102887.16;10580204;28;20011;-63
2023/05/26 20:17:08;;;;;;;;;;;;;;;13.82;66.13;102883.53;10587761;28;20400;-63
2023/05/26 20:22:10;;;;;;;;;;;;;;;13.29;66.52;102885.44;10588058;28;19930;-63
2023/05/26 20:27:12;;;;;;;;;;;;;;;13.31;67.32;102888.84;10581234;28;19936;-63
2023/05/26 20:32:15;;;;;;;;;;;;;;;13.28;67.54;102890.75;10571574;28;20014;-62
2023/05/26 20:37:17;;;;;;;;;;;;;;;13.29;67.12;102885.44;10587041;28;20309;-62
2023/05/26 20:42:20;;;;;;;;;;;;;;;13.15;68.42;102892.97;10582718;28;19923;-63
2023/05/26 20:47:22;;;;;;;;;;;;;;;13.29;68.10;102887.22;10569058;28;19930;-63
2023/05/26 20:52:25;;;;;;;;;;;;;;;13.10;68.41;102900.16;10577984;28;19967;-62
2023/05/26 20:57:27;;;;;;;;;;;;;;;13.13;68.94;102900.03;10585092;28;19934;-63
2023/05/26 21:02:30;;;;;;;;;;;;;;;12.78;69.99;102897.69;10572311;28;19923;-63
2023/05/26 21:07:32;;;;;;;;;;;;;;;12.55;70.11;102895.81;10566125;28;20285;-62
2023/05/26 21:12:34;;;;;;;;;;;;;;;12.67;70.52;102899.81;10571840;28;20294;-63
2023/05/26 21:17:36;;;;;;;;;;;;;;;12.72;70.50;102902.28;10585218;28;20294;-63
2023/05/26 21:22:39;;;;;;;;;;;;;;;12.48;70.06;102896.94;10568778;28;19985;-63
2023/05/26 21:27:41;;;;;;;;;;;;;;;12.42;70.89;102892.75;10567456;28;19930;-62
2023/05/26 21:32:44;;;;;;;;;;;;;;;12.32;70.63;102893.91;10578389;28;19924;-62
2023/05/26 21:37:46;;;;;;;;;;;;;;;11.95;72.17;102887.16;10580717;28;20401;-63
2023/05/26 21:42:48;;;;;;;;;;;;;;;12.26;71.57;102891.50;10583828;28;20278;-62
2023/05/26 21:47:50;;;;;;;;;;;;;;;12.36;70.44;102882.41;10578813;28;19923;-63
2023/05/26 21:52:53;;;;;;;;;;;;;;;12.32;71.01;102878.16;10584533;28;19923;-63
2023/05/26 21:57:55;;;;;;;;;;;;;;;12.08;72.03;102885.88;10583595;28;19931;-63
2023/05/26 22:02:57;;;;;;;;;;;;;;;12.06;72.39;102886.84;10575638;28;19974;-63
2023/05/26 22:07:59;;;;;;;;;;;;;;;11.76;73.41;102885.97;10583665;28;19924;-63
2023/05/26 22:13:02;;;;;;;;;;;;;;;11.69;72.86;102887.91;10583685;28;19934;-63
2023/05/26 22:18:04;;;;;;;;;;;;;;;11.80;72.41;102884.97;10580893;28;20030;-62
2023/05/26 22:23:06;;;;;;;;;;;;;;;11.62;73.80;102895.09;10583519;28;19924;-62
2023/05/26 22:28:09;;;;;;;;;;;;;;;11.48;73.82;102894.59;10583175;28;19930;-63
2023/05/26 22:33:11;;;;;;;;;;;;;;;11.41;74.70;102898.31;10578080;28;19930;-62
2023/05/26 22:38:13;;;;;;;;;;;;;;;11.64;73.82;102892.44;10568668;28;19924;-63
2023/05/26 22:43:15;;;;;;;;;;;;;;;11.33;75.75;102895.88;10573011;28;19931;-63
2023/05/26 22:48:18;;;;;;;;;;;;;;;11.63;74.20;102888.94;10555076;28;19934;-63
2023/05/26 22:53:21;;;;;;;;;;;;;;;11.18;75.97;102902.41;10568070;28;20374;-63
2023/05/26 22:58:23;;;;;;;;;;;;;;;11.15;75.44;102895.47;10563661;28;20386;-63
2023/05/26 23:03:25;;;;;;;;;;;;;;;11.15;75.99;102889.38;10580302;28;19924;-63
2023/05/26 23:08:27;;;;;;;;;;;;;;;10.80;76.11;102895.53;10563564;28;20326;-63
2023/05/26 23:13:30;;;;;;;;;;;;;;;11.00;76.61;102889.78;10580442;28;19924;-63
2023/05/26 23:18:32;;;;;;;;;;;;;;;10.83;76.65;102893.69;10581866;28;19924;-63
2023/05/26 23:23:35;;;;;;;;;;;;;;;10.92;76.91;102892.59;10570632;28;20019;-63
2023/05/26 23:28:37;;;;;;;;;;;;;;;10.83;77.06;102888.47;10562152;28;19943;-63
2023/05/26 23:33:39;;;;;;;;;;;;;;;10.60;77.95;102889.00;10571862;28;20294;-63
2023/05/26 23:38:42;;;;;;;;;;;;;;;10.59;77.69;102880.31;10589207;28;20383;-63
2023/05/26 23:43:44;;;;;;;;;;;;;;;10.81;77.64;102878.91;10571005;28;19923;-63
2023/05/26 23:48:46;;;;;;;;;;;;;;;10.46;78.54;102886.72;10584984;28;20286;-63
2023/05/26 23:53:48;;;;;;;;;;;;;;;10.47;79.01;102879.72;10569717;28;19924;-63
2023/05/26 23:58:50;;;;;;;;;;;;;;;10.39;79.73;102882.53;10589074;28;19930;-64
